createdAt,value
2018-02-18T00:00:09.262Z,21.22
2018-02-18T00:00:40.885Z,21.21
2018-02-18T00:01:12.563Z,21.22
2018-02-18T00:01:44.190Z,21.19
2018-02-18T00:02:15.822Z,21.19
2018-02-18T00:02:47.500Z,21.21
2018-02-18T00:03:19.110Z,21.18
2018-02-18T00:03:50.736Z,21.16
2018-02-18T00:04:22.374Z,21.17
2018-02-18T00:04:53.998Z,21.18
2018-02-18T00:05:25.626Z,21.18
2018-02-18T00:05:57.256Z,21.16
2018-02-18T00:06:28.922Z,21.15
2018-02-18T00:07:00.642Z,21.15
2018-02-18T00:07:32.254Z,21.12
2018-02-18T00:08:03.879Z,21.14
2018-02-18T00:08:35.502Z,21.17
2018-02-18T00:09:07.126Z,21.15
2018-02-18T00:09:38.754Z,21.15
2018-02-18T00:10:10.378Z,21.14
2018-02-18T00:10:42.002Z,21.15
2018-02-18T00:11:13.631Z,21.15
2018-02-18T00:11:45.270Z,21.17
2018-02-18T00:12:17.041Z,21.16
2018-02-18T00:12:48.685Z,21.17
2018-02-18T00:13:20.318Z,21.16
2018-02-18T00:13:52.906Z,21.16
2018-02-18T00:14:30.154Z,21.14
2018-02-18T00:15:01.796Z,21.15
2018-02-18T00:15:33.442Z,21.15
2018-02-18T00:16:05.090Z,21.17
2018-02-18T00:16:36.761Z,21.16
2018-02-18T00:17:08.390Z,21.15
2018-02-18T00:17:40.058Z,21.15
2018-02-18T00:18:11.686Z,21.16
2018-02-18T00:18:43.323Z,21.15
2018-02-18T00:19:14.990Z,21.15
2018-02-18T00:19:46.618Z,21.20
2018-02-18T00:20:18.242Z,21.22
2018-02-18T00:20:49.870Z,21.22
2018-02-18T00:21:21.498Z,21.17
2018-02-18T00:21:53.121Z,21.13
2018-02-18T00:22:24.746Z,21.10
2018-02-18T00:22:56.378Z,21.07
2018-02-18T00:23:28.046Z,21.09
2018-02-18T00:23:59.675Z,21.11
2018-02-18T00:24:31.306Z,21.17
2018-02-18T00:25:02.938Z,21.16
2018-02-18T00:25:34.567Z,21.15
2018-02-18T00:26:06.191Z,21.16
2018-02-18T00:26:37.813Z,21.16
2018-02-18T00:27:09.443Z,21.16
2018-02-18T00:27:41.068Z,21.15
2018-02-18T00:28:12.690Z,21.14
2018-02-18T00:28:44.363Z,21.14
2018-02-18T00:29:15.995Z,21.13
2018-02-18T00:29:47.618Z,21.17
2018-02-18T00:30:19.242Z,21.16
2018-02-18T00:30:50.866Z,21.17
2018-02-18T00:31:22.493Z,21.16
2018-02-18T00:31:54.121Z,21.18
2018-02-18T00:32:25.747Z,21.16
2018-02-18T00:32:57.378Z,21.13
2018-02-18T00:33:29.142Z,21.13
2018-02-18T00:34:00.771Z,21.13
2018-02-18T00:34:32.430Z,21.13
2018-02-18T00:35:04.056Z,21.16
2018-02-18T00:35:35.687Z,21.15
2018-02-18T00:36:07.323Z,21.14
2018-02-18T00:36:38.954Z,21.17
2018-02-18T00:37:10.602Z,21.17
2018-02-18T00:37:42.234Z,21.18
2018-02-18T00:38:13.862Z,21.17
2018-02-18T00:38:45.543Z,21.18
2018-02-18T00:39:17.171Z,21.20
2018-02-18T00:39:48.794Z,21.20
2018-02-18T00:40:20.430Z,21.21
2018-02-18T00:40:52.062Z,21.20
2018-02-18T00:41:23.691Z,21.20
2018-02-18T00:41:55.318Z,21.20
2018-02-18T00:42:26.966Z,21.25
2018-02-18T00:42:58.626Z,21.25
2018-02-18T00:43:30.259Z,21.25
2018-02-18T00:44:01.926Z,21.24
2018-02-18T00:44:33.578Z,21.22
2018-02-18T00:45:05.198Z,21.22
2018-02-18T00:45:36.818Z,21.20
2018-02-18T00:46:08.482Z,21.22
2018-02-18T00:46:40.106Z,21.25
2018-02-18T00:47:11.747Z,21.27
2018-02-18T00:47:43.423Z,21.25
2018-02-18T00:48:15.055Z,21.26
2018-02-18T00:48:46.682Z,21.24
2018-02-18T00:49:18.311Z,21.21
2018-02-18T00:49:49.950Z,21.20
2018-02-18T00:50:21.590Z,21.22
2018-02-18T00:50:53.238Z,21.22
2018-02-18T00:51:24.906Z,21.23
2018-02-18T00:51:56.540Z,21.21
2018-02-18T00:52:28.238Z,21.20
2018-02-18T00:52:59.886Z,21.19
2018-02-18T00:53:31.542Z,21.19
2018-02-18T00:54:03.171Z,21.20
2018-02-18T00:54:34.798Z,21.18
2018-02-18T00:55:06.426Z,21.21
2018-02-18T00:55:38.055Z,21.22
2018-02-18T00:56:09.683Z,21.22
2018-02-18T00:56:41.312Z,21.22
2018-02-18T00:57:12.947Z,21.22
2018-02-18T00:57:44.630Z,21.21
2018-02-18T00:58:16.273Z,21.19
2018-02-18T00:58:47.907Z,21.21
2018-02-18T00:59:19.531Z,21.20
2018-02-18T00:59:51.154Z,21.21
2018-02-18T01:00:22.782Z,21.21
2018-02-18T01:00:54.410Z,21.23
2018-02-18T01:01:26.043Z,21.21
2018-02-18T01:01:57.675Z,21.21
2018-02-18T01:02:29.302Z,21.21
2018-02-18T01:03:01.010Z,21.19
2018-02-18T01:03:32.634Z,21.22
2018-02-18T01:04:04.258Z,21.20
2018-02-18T01:04:35.886Z,21.21
2018-02-18T01:05:07.514Z,21.20
2018-02-18T01:05:39.134Z,21.18
2018-02-18T01:06:10.762Z,21.18
2018-02-18T01:06:42.390Z,21.20
2018-02-18T01:07:14.014Z,21.18
2018-02-18T01:07:45.642Z,21.23
2018-02-18T01:08:17.326Z,21.23
2018-02-18T01:08:48.959Z,21.28
2018-02-18T01:09:20.582Z,21.29
2018-02-18T01:09:52.207Z,21.29
2018-02-18T01:10:23.831Z,21.30
2018-02-18T01:10:55.459Z,21.26
2018-02-18T01:11:27.086Z,21.24
2018-02-18T01:11:58.710Z,21.28
2018-02-18T01:12:30.338Z,21.29
2018-02-18T01:13:01.967Z,21.29
2018-02-18T01:13:33.648Z,21.30
2018-02-18T01:14:05.282Z,21.25
2018-02-18T01:14:36.915Z,21.26
2018-02-18T01:15:08.538Z,21.27
2018-02-18T01:15:40.167Z,21.26
2018-02-18T01:16:11.789Z,21.27
2018-02-18T01:16:43.414Z,21.25
2018-02-18T01:17:15.038Z,21.25
2018-02-18T01:17:46.662Z,21.24
2018-02-18T01:18:18.293Z,21.23
2018-02-18T01:18:49.918Z,21.23
2018-02-18T01:19:21.550Z,21.22
2018-02-18T01:19:53.222Z,21.24
2018-02-18T01:20:24.855Z,21.27
2018-02-18T01:20:56.486Z,21.27
2018-02-18T01:21:28.117Z,21.25
2018-02-18T01:21:59.742Z,21.23
2018-02-18T01:22:31.370Z,21.25
2018-02-18T01:23:02.998Z,21.23
2018-02-18T01:23:34.630Z,21.23
2018-02-18T01:24:06.254Z,21.25
2018-02-18T01:24:37.883Z,21.24
2018-02-18T01:25:09.558Z,21.25
2018-02-18T01:25:41.210Z,21.24
2018-02-18T01:26:12.838Z,21.23
2018-02-18T01:26:44.462Z,21.22
2018-02-18T01:27:16.086Z,21.23
2018-02-18T01:27:47.714Z,21.21
2018-02-18T01:28:19.338Z,21.23
2018-02-18T01:28:50.962Z,21.24
2018-02-18T01:29:22.582Z,21.23
2018-02-18T01:29:54.210Z,21.22
2018-02-18T01:30:25.883Z,21.22
2018-02-18T01:30:57.510Z,21.20
2018-02-18T01:31:29.134Z,21.18
2018-02-18T01:32:00.758Z,21.19
2018-02-18T01:32:32.386Z,21.21
2018-02-18T01:33:04.043Z,21.18
2018-02-18T01:33:35.674Z,21.19
2018-02-18T01:34:07.302Z,21.18
2018-02-18T01:34:38.934Z,21.18
2018-02-18T01:35:10.563Z,21.18
2018-02-18T01:35:42.230Z,21.20
2018-02-18T01:36:13.859Z,21.19
2018-02-18T01:36:45.486Z,21.18
2018-02-18T01:37:17.114Z,21.20
2018-02-18T01:37:48.743Z,21.21
2018-02-18T01:38:20.366Z,21.20
2018-02-18T01:38:51.998Z,21.22
2018-02-18T01:39:23.626Z,21.21
2018-02-18T01:39:55.254Z,21.19
2018-02-18T01:40:27.026Z,21.19
2018-02-18T01:40:58.651Z,21.17
2018-02-18T01:41:30.283Z,21.20
2018-02-18T01:42:01.905Z,21.20
2018-02-18T01:42:33.538Z,21.21
2018-02-18T01:43:05.170Z,21.21
2018-02-18T01:43:36.799Z,21.20
2018-02-18T01:44:08.426Z,21.22
2018-02-18T01:44:40.055Z,21.19
2018-02-18T01:45:11.682Z,21.19
2018-02-18T01:45:43.355Z,21.19
2018-02-18T01:46:14.979Z,21.17
2018-02-18T01:46:46.602Z,21.18
2018-02-18T01:47:18.226Z,21.21
2018-02-18T01:47:49.850Z,21.21
2018-02-18T01:48:21.522Z,21.25
2018-02-18T01:48:53.154Z,21.26
2018-02-18T01:49:24.782Z,21.27
2018-02-18T01:49:56.411Z,21.23
2018-02-18T01:50:28.044Z,21.23
2018-02-18T01:50:59.670Z,21.20
2018-02-18T01:51:31.298Z,21.19
2018-02-18T01:52:02.926Z,21.19
2018-02-18T01:52:34.591Z,21.21
2018-02-18T01:53:06.264Z,21.19
2018-02-18T01:53:37.885Z,21.21
2018-02-18T01:54:09.514Z,21.22
2018-02-18T01:54:41.138Z,21.21
2018-02-18T01:55:12.766Z,21.24
2018-02-18T01:55:44.399Z,21.19
2018-02-18T01:56:16.026Z,21.20
2018-02-18T01:56:47.659Z,21.22
2018-02-18T01:57:19.286Z,21.23
2018-02-18T01:57:50.959Z,21.22
2018-02-18T01:58:22.586Z,21.22
2018-02-18T01:58:54.215Z,21.21
2018-02-18T01:59:25.886Z,21.18
2018-02-18T01:59:57.510Z,21.20
2018-02-18T02:00:29.140Z,21.20
2018-02-18T02:01:00.782Z,21.20
2018-02-18T02:01:32.415Z,21.19
2018-02-18T02:02:04.038Z,21.18
2018-02-18T02:02:35.657Z,21.20
2018-02-18T02:03:07.287Z,21.20
2018-02-18T02:03:38.913Z,21.19
2018-02-18T02:04:10.581Z,21.18
2018-02-18T02:04:42.231Z,21.19
2018-02-18T02:05:13.854Z,21.18
2018-02-18T02:05:45.478Z,21.22
2018-02-18T02:06:17.106Z,21.21
2018-02-18T02:06:48.726Z,21.21
2018-02-18T02:07:20.355Z,21.20
2018-02-18T02:07:51.982Z,21.22
2018-02-18T02:08:23.606Z,21.20
2018-02-18T02:08:55.410Z,21.21
2018-02-18T02:09:27.074Z,21.20
2018-02-18T02:09:58.698Z,21.21
2018-02-18T02:10:30.331Z,21.20
2018-02-18T02:11:01.958Z,21.19
2018-02-18T02:11:33.582Z,21.20
2018-02-18T02:12:05.206Z,21.23
2018-02-18T02:12:36.836Z,21.22
2018-02-18T02:13:08.461Z,21.21
2018-02-18T02:13:40.095Z,21.22
2018-02-18T02:14:11.774Z,21.24
2018-02-18T02:14:43.407Z,21.21
2018-02-18T02:15:15.031Z,21.21
2018-02-18T02:15:46.654Z,21.22
2018-02-18T02:16:18.278Z,21.22
2018-02-18T02:16:49.907Z,21.26
2018-02-18T02:17:21.530Z,21.26
2018-02-18T02:17:53.158Z,21.25
2018-02-18T02:18:24.790Z,21.27
2018-02-18T02:18:56.414Z,21.25
2018-02-18T02:19:28.078Z,21.23
2018-02-18T02:19:59.711Z,21.26
2018-02-18T02:20:31.334Z,21.25
2018-02-18T02:21:02.959Z,21.25
2018-02-18T02:21:34.582Z,21.24
2018-02-18T02:22:06.212Z,21.27
2018-02-18T02:22:37.920Z,21.26
2018-02-18T02:23:09.545Z,21.24
2018-02-18T02:23:41.170Z,21.21
2018-02-18T02:24:12.794Z,21.18
2018-02-18T02:24:44.431Z,21.20
2018-02-18T02:25:16.054Z,21.17
2018-02-18T02:25:47.733Z,21.20
2018-02-18T02:26:19.362Z,21.19
2018-02-18T02:26:51.002Z,21.19
2018-02-18T02:27:22.631Z,21.19
2018-02-18T02:27:54.258Z,21.20
2018-02-18T02:28:25.882Z,21.17
2018-02-18T02:28:57.513Z,21.18
2018-02-18T02:29:29.138Z,21.17
2018-02-18T02:30:00.762Z,21.16
2018-02-18T02:30:32.395Z,21.15
2018-02-18T02:31:04.023Z,21.18
2018-02-18T02:31:35.650Z,21.18
2018-02-18T02:32:07.283Z,21.20
2018-02-18T02:32:38.915Z,21.19
2018-02-18T02:33:10.547Z,21.17
2018-02-18T02:33:42.174Z,21.17
2018-02-18T02:34:13.846Z,21.08
2018-02-18T02:34:45.490Z,21.15
2018-02-18T02:35:17.118Z,21.11
2018-02-18T02:35:48.747Z,21.13
2018-02-18T02:36:20.378Z,21.11
2018-02-18T02:36:52.001Z,21.09
2018-02-18T02:37:23.650Z,21.11
2018-02-18T02:37:55.294Z,21.09
2018-02-18T02:38:26.946Z,21.10
2018-02-18T02:38:58.574Z,21.08
2018-02-18T02:39:30.243Z,21.09
2018-02-18T02:40:01.910Z,21.08
2018-02-18T02:40:33.540Z,21.07
2018-02-18T02:41:05.173Z,21.06
2018-02-18T02:41:36.803Z,21.06
2018-02-18T02:42:08.430Z,21.07
2018-02-18T02:42:40.058Z,21.07
2018-02-18T02:43:11.682Z,21.09
2018-02-18T02:43:43.391Z,21.06
2018-02-18T02:44:15.018Z,21.05
2018-02-18T02:44:46.775Z,21.02
2018-02-18T02:45:18.406Z,21.02
2018-02-18T02:45:50.039Z,21.03
2018-02-18T02:46:21.666Z,21.04
2018-02-18T02:46:53.290Z,21.05
2018-02-18T02:47:24.914Z,21.01
2018-02-18T02:47:56.539Z,21.01
2018-02-18T02:48:28.221Z,21.01
2018-02-18T02:48:59.858Z,20.98
2018-02-18T02:49:31.483Z,20.99
2018-02-18T02:50:03.118Z,21.01
2018-02-18T02:50:34.747Z,21.04
2018-02-18T02:51:06.384Z,21.05
2018-02-18T02:51:38.007Z,21.04
2018-02-18T02:52:09.643Z,21.06
2018-02-18T02:52:41.270Z,21.04
2018-02-18T02:53:12.894Z,21.02
2018-02-18T02:53:44.563Z,21.01
2018-02-18T02:54:16.194Z,21.01
2018-02-18T02:54:47.817Z,21.01
2018-02-18T02:55:19.458Z,21.02
2018-02-18T02:55:51.082Z,20.99
2018-02-18T02:56:22.707Z,21.02
2018-02-18T02:56:54.330Z,21.03
2018-02-18T02:57:25.954Z,21.01
2018-02-18T02:57:57.582Z,21.03
2018-02-18T02:58:29.245Z,21.05
2018-02-18T02:59:00.871Z,21.03
2018-02-18T02:59:32.503Z,21.02
2018-02-18T03:00:04.134Z,21.00
2018-02-18T03:00:35.764Z,21.00
2018-02-18T03:01:07.404Z,21.00
2018-02-18T03:01:39.030Z,21.00
2018-02-18T03:02:10.659Z,21.03
2018-02-18T03:02:42.292Z,21.03
2018-02-18T03:03:13.919Z,21.07
2018-02-18T03:03:45.554Z,21.09
2018-02-18T03:04:17.231Z,21.11
2018-02-18T03:04:48.854Z,21.11
2018-02-18T03:05:20.482Z,21.10
2018-02-18T03:05:52.105Z,21.07
2018-02-18T03:06:23.730Z,21.08
2018-02-18T03:06:55.362Z,21.06
2018-02-18T03:07:26.990Z,21.09
2018-02-18T03:07:58.618Z,21.09
2018-02-18T03:08:30.252Z,21.09
2018-02-18T03:09:01.936Z,21.11
2018-02-18T03:09:33.586Z,21.11
2018-02-18T03:10:05.227Z,21.11
2018-02-18T03:10:36.855Z,21.11
2018-02-18T03:11:08.477Z,21.11
2018-02-18T03:11:40.102Z,21.10
2018-02-18T03:12:11.726Z,21.08
2018-02-18T03:12:43.395Z,21.04
2018-02-18T03:13:15.023Z,21.02
2018-02-18T03:13:46.651Z,21.02
2018-02-18T03:14:18.282Z,21.03
2018-02-18T03:14:49.906Z,21.01
2018-02-18T03:15:21.530Z,20.99
2018-02-18T03:15:53.163Z,21.00
2018-02-18T03:16:24.825Z,21.02
2018-02-18T03:16:56.455Z,21.03
2018-02-18T03:17:28.079Z,21.03
2018-02-18T03:17:59.706Z,21.02
2018-02-18T03:18:31.335Z,21.02
2018-02-18T03:19:02.958Z,21.01
2018-02-18T03:19:34.622Z,21.03
2018-02-18T03:20:06.246Z,20.99
2018-02-18T03:20:37.874Z,21.00
2018-02-18T03:21:10.505Z,21.01
2018-02-18T03:21:42.134Z,20.97
2018-02-18T03:22:13.758Z,20.99
2018-02-18T03:22:45.382Z,21.00
2018-02-18T03:23:17.006Z,21.01
2018-02-18T03:23:48.678Z,20.98
2018-02-18T03:24:20.310Z,20.97
2018-02-18T03:24:51.933Z,20.96
2018-02-18T03:25:23.557Z,20.96
2018-02-18T03:25:55.186Z,20.99
2018-02-18T03:26:26.810Z,20.99
2018-02-18T03:26:58.441Z,21.02
2018-02-18T03:27:30.066Z,21.01
2018-02-18T03:28:01.694Z,21.01
2018-02-18T03:28:33.318Z,21.02
2018-02-18T03:29:04.989Z,21.02
2018-02-18T03:29:36.622Z,21.01
2018-02-18T03:30:08.255Z,21.00
2018-02-18T03:30:39.886Z,21.00
2018-02-18T03:31:11.511Z,21.00
2018-02-18T03:31:43.143Z,20.98
2018-02-18T03:32:14.766Z,20.96
2018-02-18T03:32:46.396Z,20.97
2018-02-18T03:33:18.022Z,21.00
2018-02-18T03:33:49.654Z,20.98
2018-02-18T03:34:21.318Z,20.98
2018-02-18T03:34:52.942Z,21.00
2018-02-18T03:35:24.566Z,21.00
2018-02-18T03:35:56.194Z,20.98
2018-02-18T03:36:27.823Z,20.99
2018-02-18T03:36:59.451Z,20.97
2018-02-18T03:37:31.074Z,20.95
2018-02-18T03:38:02.737Z,20.97
2018-02-18T03:38:34.383Z,20.96
2018-02-18T03:39:06.006Z,20.95
2018-02-18T03:39:37.678Z,20.96
2018-02-18T03:40:09.342Z,20.96
2018-02-18T03:40:40.974Z,20.98
2018-02-18T03:41:12.602Z,20.97
2018-02-18T03:41:44.226Z,20.98
2018-02-18T03:42:15.887Z,21.00
2018-02-18T03:42:47.511Z,20.99
2018-02-18T03:43:19.135Z,20.99
2018-02-18T03:43:50.761Z,20.99
2018-02-18T03:44:22.381Z,20.98
2018-02-18T03:44:54.005Z,20.99
2018-02-18T03:45:25.635Z,20.99
2018-02-18T03:45:57.258Z,20.98
2018-02-18T03:46:28.886Z,20.96
2018-02-18T03:47:00.510Z,20.96
2018-02-18T03:47:32.142Z,20.98
2018-02-18T03:48:03.770Z,20.99
2018-02-18T03:48:35.397Z,20.98
2018-02-18T03:49:07.026Z,20.98
2018-02-18T03:49:38.654Z,20.99
2018-02-18T03:50:10.339Z,20.98
2018-02-18T03:50:41.969Z,20.98
2018-02-18T03:51:13.594Z,20.99
2018-02-18T03:51:45.226Z,21.00
2018-02-18T03:52:16.854Z,20.98
2018-02-18T03:52:48.479Z,20.99
2018-02-18T03:53:20.101Z,20.98
2018-02-18T03:53:51.734Z,21.00
2018-02-18T03:54:23.358Z,21.00
2018-02-18T03:54:54.986Z,21.00
2018-02-18T03:55:26.674Z,21.01
2018-02-18T03:55:58.304Z,21.01
2018-02-18T03:56:29.942Z,20.99
2018-02-18T03:57:01.565Z,21.00
2018-02-18T03:57:33.194Z,20.99
2018-02-18T03:58:04.827Z,21.00
2018-02-18T03:58:36.450Z,21.02
2018-02-18T03:59:08.073Z,21.01
2018-02-18T03:59:39.703Z,21.01
2018-02-18T04:00:11.330Z,21.00
2018-02-18T04:00:42.994Z,20.99
2018-02-18T04:01:14.623Z,21.01
2018-02-18T04:01:46.269Z,21.00
2018-02-18T04:02:17.894Z,21.00
2018-02-18T04:02:49.535Z,21.01
2018-02-18T04:03:21.158Z,21.01
2018-02-18T04:03:52.790Z,21.04
2018-02-18T04:04:24.416Z,21.03
2018-02-18T04:04:56.046Z,21.01
2018-02-18T04:05:27.670Z,21.00
2018-02-18T04:05:59.338Z,21.02
2018-02-18T04:06:30.962Z,21.00
2018-02-18T04:07:02.590Z,20.98
2018-02-18T04:07:34.214Z,20.98
2018-02-18T04:08:05.837Z,20.98
2018-02-18T04:08:37.458Z,20.97
2018-02-18T04:09:09.130Z,20.95
2018-02-18T04:09:40.755Z,20.97
2018-02-18T04:10:12.378Z,20.97
2018-02-18T04:10:43.998Z,20.98
2018-02-18T04:11:15.627Z,20.95
2018-02-18T04:11:47.258Z,20.95
2018-02-18T04:12:18.886Z,20.93
2018-02-18T04:12:50.514Z,20.95
2018-02-18T04:13:22.140Z,20.94
2018-02-18T04:13:53.779Z,20.95
2018-02-18T04:14:25.401Z,20.95
2018-02-18T04:14:57.026Z,20.93
2018-02-18T04:15:28.666Z,20.93
2018-02-18T04:16:00.289Z,20.92
2018-02-18T04:16:31.919Z,20.93
2018-02-18T04:17:03.710Z,20.90
2018-02-18T04:17:35.340Z,20.94
2018-02-18T04:18:06.974Z,20.93
2018-02-18T04:18:38.597Z,20.92
2018-02-18T04:19:10.226Z,20.95
2018-02-18T04:19:42.486Z,20.93
2018-02-18T04:20:14.119Z,20.94
2018-02-18T04:20:45.747Z,20.94
2018-02-18T04:21:17.382Z,20.93
2018-02-18T04:21:49.005Z,20.93
2018-02-18T04:22:20.635Z,20.94
2018-02-18T04:22:52.311Z,20.94
2018-02-18T04:23:23.933Z,20.92
2018-02-18T04:23:55.558Z,20.92
2018-02-18T04:24:27.418Z,20.94
2018-02-18T04:24:59.042Z,20.92
2018-02-18T04:25:30.667Z,20.93
2018-02-18T04:26:02.290Z,20.92
2018-02-18T04:26:33.910Z,20.93
2018-02-18T04:27:05.539Z,20.95
2018-02-18T04:27:37.167Z,20.96
2018-02-18T04:28:08.794Z,20.98
2018-02-18T04:28:40.418Z,20.99
2018-02-18T04:29:12.051Z,21.00
2018-02-18T04:29:43.722Z,21.04
2018-02-18T04:30:15.341Z,21.04
2018-02-18T04:30:47.019Z,21.03
2018-02-18T04:31:18.642Z,21.01
2018-02-18T04:31:50.266Z,21.02
2018-02-18T04:32:21.889Z,21.02
2018-02-18T04:32:53.514Z,21.04
2018-02-18T04:33:25.142Z,21.02
2018-02-18T04:33:56.766Z,21.02
2018-02-18T04:34:28.386Z,21.01
2018-02-18T04:35:00.015Z,21.01
2018-02-18T04:35:31.638Z,21.02
2018-02-18T04:36:03.410Z,21.04
2018-02-18T04:36:35.043Z,21.02
2018-02-18T04:37:06.680Z,21.02
2018-02-18T04:37:38.306Z,21.02
2018-02-18T04:38:09.931Z,21.02
2018-02-18T04:38:41.554Z,21.00
2018-02-18T04:39:13.186Z,21.00
2018-02-18T04:39:44.820Z,21.00
2018-02-18T04:40:16.450Z,21.00
2018-02-18T04:40:48.131Z,21.02
2018-02-18T04:41:19.754Z,21.00
2018-02-18T04:41:51.378Z,21.00
2018-02-18T04:42:23.006Z,21.01
2018-02-18T04:42:54.636Z,21.02
2018-02-18T04:43:26.266Z,21.05
2018-02-18T04:43:57.890Z,21.05
2018-02-18T04:44:29.514Z,21.04
2018-02-18T04:45:01.138Z,21.03
2018-02-18T04:45:32.767Z,21.04
2018-02-18T04:46:04.430Z,21.01
2018-02-18T04:46:36.057Z,21.00
2018-02-18T04:47:07.687Z,21.01
2018-02-18T04:47:39.310Z,21.00
2018-02-18T04:48:11.039Z,21.02
2018-02-18T04:48:42.668Z,21.03
2018-02-18T04:49:14.286Z,21.02
2018-02-18T04:49:45.918Z,21.03
2018-02-18T04:50:17.586Z,21.01
2018-02-18T04:50:49.210Z,21.00
2018-02-18T04:51:20.834Z,21.01
2018-02-18T04:51:52.467Z,20.99
2018-02-18T04:52:24.125Z,21.01
2018-02-18T04:52:55.802Z,21.00
2018-02-18T04:53:27.426Z,20.98
2018-02-18T04:53:59.055Z,20.97
2018-02-18T04:54:30.686Z,20.97
2018-02-18T04:55:02.326Z,20.96
2018-02-18T04:55:33.951Z,20.97
2018-02-18T04:56:05.574Z,20.98
2018-02-18T04:56:37.201Z,20.98
2018-02-18T04:57:08.842Z,20.96
2018-02-18T04:57:40.466Z,20.95
2018-02-18T04:58:12.146Z,20.96
2018-02-18T04:58:43.778Z,20.98
2018-02-18T04:59:15.406Z,21.01
2018-02-18T04:59:47.037Z,21.02
2018-02-18T05:00:18.664Z,21.01
2018-02-18T05:00:50.294Z,21.00
2018-02-18T05:01:21.917Z,21.02
2018-02-18T05:01:53.542Z,21.04
2018-02-18T05:02:25.166Z,21.02
2018-02-18T05:02:56.790Z,21.04
2018-02-18T05:03:28.471Z,21.04
2018-02-18T05:04:00.098Z,21.03
2018-02-18T05:04:31.726Z,21.02
2018-02-18T05:05:03.356Z,21.01
2018-02-18T05:05:34.982Z,20.99
2018-02-18T05:06:06.610Z,20.98
2018-02-18T05:06:38.234Z,21.00
2018-02-18T05:07:09.894Z,20.96
2018-02-18T05:07:41.518Z,20.97
2018-02-18T05:08:13.143Z,20.96
2018-02-18T05:08:44.769Z,20.95
2018-02-18T05:09:16.389Z,20.96
2018-02-18T05:09:48.009Z,20.98
2018-02-18T05:10:19.630Z,20.98
2018-02-18T05:10:51.258Z,20.98
2018-02-18T05:11:22.881Z,20.98
2018-02-18T05:11:54.509Z,20.96
2018-02-18T05:12:26.138Z,20.94
2018-02-18T05:12:57.761Z,20.92
2018-02-18T05:13:29.433Z,20.90
2018-02-18T05:14:01.063Z,20.93
2018-02-18T05:14:32.691Z,20.94
2018-02-18T05:15:04.318Z,20.93
2018-02-18T05:15:35.942Z,20.91
2018-02-18T05:16:07.586Z,20.88
2018-02-18T05:16:39.214Z,20.90
2018-02-18T05:17:10.842Z,20.90
2018-02-18T05:17:42.471Z,20.93
2018-02-18T05:18:14.094Z,20.94
2018-02-18T05:18:45.762Z,20.93
2018-02-18T05:19:17.442Z,20.93
2018-02-18T05:19:49.070Z,20.91
2018-02-18T05:20:20.697Z,20.92
2018-02-18T05:20:52.322Z,20.92
2018-02-18T05:21:23.954Z,20.92
2018-02-18T05:21:55.583Z,20.87
2018-02-18T05:22:27.217Z,20.90
2018-02-18T05:22:58.846Z,20.90
2018-02-18T05:23:30.469Z,20.91
2018-02-18T05:24:02.097Z,20.92
2018-02-18T05:24:33.766Z,20.92
2018-02-18T05:25:05.389Z,20.94
2018-02-18T05:25:37.018Z,20.93
2018-02-18T05:26:08.643Z,20.90
2018-02-18T05:26:40.265Z,20.91
2018-02-18T05:27:11.892Z,20.89
2018-02-18T05:27:43.517Z,20.91
2018-02-18T05:28:15.143Z,20.88
2018-02-18T05:28:46.811Z,20.88
2018-02-18T05:29:18.446Z,20.87
2018-02-18T05:29:50.069Z,20.88
2018-02-18T05:30:21.694Z,20.90
2018-02-18T05:30:53.317Z,20.90
2018-02-18T05:31:25.006Z,20.90
2018-02-18T05:31:56.629Z,20.92
2018-02-18T05:32:28.539Z,20.92
2018-02-18T05:33:00.170Z,20.95
2018-02-18T05:33:31.798Z,20.98
2018-02-18T05:34:03.421Z,20.98
2018-02-18T05:34:35.046Z,21.00
2018-02-18T05:35:06.670Z,21.01
2018-02-18T05:35:38.298Z,21.03
2018-02-18T05:36:09.922Z,21.04
2018-02-18T05:36:41.611Z,21.02
2018-02-18T05:37:13.244Z,21.00
2018-02-18T05:37:44.870Z,21.00
2018-02-18T05:38:16.499Z,21.05
2018-02-18T05:38:48.126Z,21.03
2018-02-18T05:39:19.749Z,21.03
2018-02-18T05:39:51.383Z,21.03
2018-02-18T05:40:23.009Z,21.06
2018-02-18T05:40:54.633Z,21.09
2018-02-18T05:41:26.263Z,21.07
2018-02-18T05:41:57.946Z,21.04
2018-02-18T05:42:29.574Z,21.04
2018-02-18T05:43:01.203Z,21.08
2018-02-18T05:43:32.825Z,21.07
2018-02-18T05:44:04.490Z,21.06
2018-02-18T05:44:36.114Z,21.06
2018-02-18T05:45:07.737Z,21.07
2018-02-18T05:45:39.366Z,21.06
2018-02-18T05:46:10.994Z,21.04
2018-02-18T05:46:42.617Z,21.04
2018-02-18T05:47:14.282Z,21.05
2018-02-18T05:47:45.914Z,21.09
2018-02-18T05:48:17.539Z,21.13
2018-02-18T05:48:49.206Z,21.08
2018-02-18T05:49:20.830Z,21.02
2018-02-18T05:49:52.450Z,20.99
2018-02-18T05:50:24.073Z,20.96
2018-02-18T05:50:55.702Z,20.88
2018-02-18T05:51:27.335Z,20.86
2018-02-18T05:51:58.970Z,20.90
2018-02-18T05:52:30.603Z,20.93
2018-02-18T05:53:02.226Z,20.96
2018-02-18T05:53:33.899Z,20.96
2018-02-18T05:54:05.527Z,20.98
2018-02-18T05:54:37.158Z,20.98
2018-02-18T05:55:08.791Z,20.98
2018-02-18T05:55:40.475Z,20.95
2018-02-18T05:56:12.110Z,20.96
2018-02-18T05:56:43.742Z,20.96
2018-02-18T05:57:15.366Z,20.97
2018-02-18T05:57:46.990Z,20.95
2018-02-18T05:58:18.619Z,20.96
2018-02-18T05:58:50.250Z,20.95
2018-02-18T05:59:21.879Z,20.95
2018-02-18T05:59:53.510Z,20.96
2018-02-18T06:00:25.138Z,21.00
2018-02-18T06:00:56.814Z,20.99
2018-02-18T06:01:28.437Z,20.99
2018-02-18T06:02:00.062Z,20.96
2018-02-18T06:02:31.754Z,20.97
2018-02-18T06:03:03.377Z,20.95
2018-02-18T06:03:35.002Z,20.93
2018-02-18T06:04:06.635Z,20.92
2018-02-18T06:04:38.261Z,20.93
2018-02-18T06:05:09.885Z,20.91
2018-02-18T06:05:41.574Z,20.92
2018-02-18T06:06:13.202Z,20.92
2018-02-18T06:06:44.825Z,20.83
2018-02-18T06:07:16.445Z,20.89
2018-02-18T06:07:48.110Z,20.90
2018-02-18T06:08:19.741Z,20.91
2018-02-18T06:08:51.370Z,20.90
2018-02-18T06:09:23.001Z,20.90
2018-02-18T06:09:54.649Z,20.90
2018-02-18T06:10:26.314Z,20.89
2018-02-18T06:10:57.942Z,20.90
2018-02-18T06:11:29.569Z,20.92
2018-02-18T06:12:01.194Z,20.94
2018-02-18T06:12:32.822Z,20.94
2018-02-18T06:13:04.498Z,20.93
2018-02-18T06:13:36.130Z,20.93
2018-02-18T06:14:07.762Z,20.92
2018-02-18T06:14:39.386Z,20.93
2018-02-18T06:15:11.015Z,20.95
2018-02-18T06:15:42.638Z,20.94
2018-02-18T06:16:14.262Z,20.94
2018-02-18T06:16:45.891Z,20.95
2018-02-18T06:17:17.518Z,20.93
2018-02-18T06:17:49.146Z,20.93
2018-02-18T06:18:20.819Z,20.92
2018-02-18T06:18:52.450Z,20.92
2018-02-18T06:19:24.074Z,20.92
2018-02-18T06:19:55.703Z,20.93
2018-02-18T06:20:27.329Z,20.94
2018-02-18T06:20:58.955Z,20.96
2018-02-18T06:21:30.582Z,20.95
2018-02-18T06:22:02.211Z,20.94
2018-02-18T06:22:33.838Z,20.98
2018-02-18T06:23:05.481Z,20.98
2018-02-18T06:23:37.166Z,20.98
2018-02-18T06:24:08.794Z,20.99
2018-02-18T06:24:40.418Z,21.01
2018-02-18T06:25:12.053Z,21.00
2018-02-18T06:25:43.679Z,21.00
2018-02-18T06:26:15.306Z,20.98
2018-02-18T06:26:46.930Z,20.99
2018-02-18T06:27:18.558Z,20.97
2018-02-18T06:27:50.218Z,20.96
2018-02-18T06:28:21.842Z,20.98
2018-02-18T06:28:53.466Z,20.96
2018-02-18T06:29:25.108Z,20.98
2018-02-18T06:29:56.734Z,20.98
2018-02-18T06:30:28.357Z,20.97
2018-02-18T06:30:59.978Z,20.97
2018-02-18T06:31:31.610Z,20.98
2018-02-18T06:32:04.254Z,20.98
2018-02-18T06:32:35.927Z,20.95
2018-02-18T06:33:07.555Z,20.96
2018-02-18T06:33:39.182Z,20.97
2018-02-18T06:34:10.846Z,20.97
2018-02-18T06:34:42.469Z,20.99
2018-02-18T06:35:14.090Z,20.97
2018-02-18T06:35:45.718Z,20.97
2018-02-18T06:36:17.347Z,20.96
2018-02-18T06:36:48.974Z,20.97
2018-02-18T06:37:20.598Z,20.96
2018-02-18T06:37:52.222Z,20.94
2018-02-18T06:38:23.895Z,20.95
2018-02-18T06:38:55.534Z,20.94
2018-02-18T06:39:27.175Z,20.92
2018-02-18T06:39:58.842Z,20.91
2018-02-18T06:40:30.475Z,20.89
2018-02-18T06:41:02.103Z,20.88
2018-02-18T06:41:33.732Z,20.89
2018-02-18T06:42:05.362Z,20.86
2018-02-18T06:42:36.992Z,20.86
2018-02-18T06:43:08.613Z,20.85
2018-02-18T06:43:40.234Z,20.85
2018-02-18T06:44:11.901Z,20.84
2018-02-18T06:44:43.526Z,20.85
2018-02-18T06:45:15.195Z,20.83
2018-02-18T06:45:46.810Z,20.81
2018-02-18T06:46:18.438Z,20.84
2018-02-18T06:46:50.062Z,20.86
2018-02-18T06:47:21.686Z,20.85